Martic, Pennsylvania
Current Conditions -  °F | °C
As of 4:53 AM on Monday 20 Oct 2014 (Local Time) from KLNS Reporting Station
Clear Clear  
Wind Chill: 35°   Ceiling: Unl
Heat Index: 35°   Visibility: 9mi
Dew Point: 32°   Wind: 3mph
Humidity: 89%   Direction: 100°E
Pressure: 30.09"   Gusts: NA
Location:  39.9024°N, 76.3233°W
Report Text: KLNS 200853Z AUTO 10003KT 9SM CLR 02/00 A3009 RMK AO2 SLP191 T00170000 55000
Loading
Personal Weather Stations






























Interactive Weather Map
Tropical Storm Tracking
New forecast layout! Learn more

10-Day Weather Forecast

Advertisements
Track Severe Weather on mobile